sensor_id;sensor_type;location;lat;lon;timestamp;pressure;altitude;pressure_sealevel;temperature;humidity
69411;BME280;56604;48.652;9.194;2023-04-28T00:01:15;96077.25;;;12.41;61.93
69411;BME280;56604;48.652;9.194;2023-04-28T00:03:41;96078.28;;;12.40;61.39
69411;BME280;56604;48.652;9.194;2023-04-28T00:06:06;96083.84;;;12.44;61.62
69411;BME280;56604;48.652;9.194;2023-04-28T00:08:32;96090.16;;;12.22;62.26
69411;BME280;56604;48.652;9.194;2023-04-28T00:10:57;96082.53;;;12.15;62.87
69411;BME280;56604;48.652;9.194;2023-04-28T00:13:23;96076.69;;;12.03;63.88
69411;BME280;56604;48.652;9.194;2023-04-28T00:15:49;96072.47;;;11.97;64.01
69411;BME280;56604;48.652;9.194;2023-04-28T00:18:14;96074.06;;;11.98;63.77
69411;BME280;56604;48.652;9.194;2023-04-28T00:20:40;96078.81;;;12.01;65.69
69411;BME280;56604;48.652;9.194;2023-04-28T00:23:05;96079.34;;;11.98;66.64
69411;BME280;56604;48.652;9.194;2023-04-28T00:25:30;96063.53;;;11.98;64.58
69411;BME280;56604;48.652;9.194;2023-04-28T00:27:56;96067.22;;;11.97;64.16
69411;BME280;56604;48.652;9.194;2023-04-28T00:30:22;96064.06;;;12.05;65.17
69411;BME280;56604;48.652;9.194;2023-04-28T00:32:49;96064.06;;;12.05;65.10
69411;BME280;56604;48.652;9.194;2023-04-28T00:35:14;96061.97;;;12.07;65.36
69411;BME280;56604;48.652;9.194;2023-04-28T00:37:39;96059.84;;;12.04;66.15
69411;BME280;56604;48.652;9.194;2023-04-28T00:40:05;96060.88;;;12.03;65.99
69411;BME280;56604;48.652;9.194;2023-04-28T00:42:31;96056.69;;;12.02;66.27
69411;BME280;56604;48.652;9.194;2023-04-28T00:44:56;96049.81;;;12.06;65.24
69411;BME280;56604;48.652;9.194;2023-04-28T00:47:21;96054.06;;;12.07;64.92
69411;BME280;56604;48.652;9.194;2023-04-28T00:49:47;96054.06;;;12.07;64.93
69411;BME280;56604;48.652;9.194;2023-04-28T00:52:14;96047.19;;;12.06;64.21
69411;BME280;56604;48.652;9.194;2023-04-28T00:54:39;96040.88;;;12.07;64.36
69411;BME280;56604;48.652;9.194;2023-04-28T00:57:06;96042.44;;;12.08;64.11
69411;BME280;56604;48.652;9.194;2023-04-28T00:59:32;96035.34;;;12.09;64.23
69411;BME280;56604;48.652;9.194;2023-04-28T01:01:58;96032.16;;;12.12;63.80
69411;BME280;56604;48.652;9.194;2023-04-28T01:04:25;96034.56;;;12.13;63.44
69411;BME280;56604;48.652;9.194;2023-04-28T01:06:51;96033.50;;;12.20;63.74
69411;BME280;56604;48.652;9.194;2023-04-28T01:09:17;96027.19;;;12.15;63.48
69411;BME280;56604;48.652;9.194;2023-04-28T01:11:43;96031.94;;;12.19;63.20
69411;BME280;56604;48.652;9.194;2023-04-28T01:14:08;96033.50;;;12.20;63.11
69411;BME280;56604;48.652;9.194;2023-04-28T01:16:34;96039.31;;;12.22;63.17
69411;BME280;56604;48.652;9.194;2023-04-28T01:19:00;96031.91;;;12.24;63.36
69411;BME280;56604;48.652;9.194;2023-04-28T01:21:34;96027.97;;;12.21;63.52
69411;BME280;56604;48.652;9.194;2023-04-28T01:24:00;96034.03;;;12.27;63.57
69411;BME280;56604;48.652;9.194;2023-04-28T01:26:26;96021.63;;;12.22;63.82
69411;BME280;56604;48.652;9.194;2023-04-28T01:28:51;96018.22;;;12.22;63.63
69411;BME280;56604;48.652;9.194;2023-04-28T01:31:16;96015.31;;;12.18;63.36
69411;BME280;56604;48.652;9.194;2023-04-28T01:33:42;96014.25;;;12.19;63.38
69411;BME280;56604;48.652;9.194;2023-04-28T01:36:07;96015.81;;;12.15;63.52
69411;BME280;56604;48.652;9.194;2023-04-28T01:38:33;96005.56;;;12.13;62.88
69411;BME280;56604;48.652;9.194;2023-04-28T01:40:59;96009.78;;;12.14;63.26
69411;BME280;56604;48.652;9.194;2023-04-28T01:43:24;96014.00;;;12.15;63.58
69411;BME280;56604;48.652;9.194;2023-04-28T01:45:50;96007.16;;;12.20;64.27
69411;BME280;56604;48.652;9.194;2023-04-28T01:48:15;96003.44;;;12.21;63.79
69411;BME280;56604;48.652;9.194;2023-04-28T01:50:41;96002.16;;;12.18;64.36
69411;BME280;56604;48.652;9.194;2023-04-28T01:53:06;96003.97;;;12.18;63.94
69411;BME280;56604;48.652;9.194;2023-04-28T01:55:31;95995.81;;;12.19;64.16
69411;BME280;56604;48.652;9.194;2023-04-28T01:57:56;95987.13;;;12.13;64.37
69411;BME280;56604;48.652;9.194;2023-04-28T02:00:22;95993.47;;;12.12;65.08
69411;BME280;56604;48.652;9.194;2023-04-28T02:02:48;95992.91;;;12.21;64.35
69411;BME280;56604;48.652;9.194;2023-04-28T02:05:13;95995.81;;;12.14;64.56
69411;BME280;56604;48.652;9.194;2023-04-28T02:07:38;96002.16;;;12.18;64.20
69411;BME280;56604;48.652;9.194;2023-04-28T02:10:04;95993.19;;;12.14;64.75
69411;BME280;56604;48.652;9.194;2023-04-28T02:12:29;95988.16;;;12.23;64.19
69411;BME280;56604;48.652;9.194;2023-04-28T02:14:55;95980.00;;;12.19;63.96
69411;BME280;56604;48.652;9.194;2023-04-28T02:17:20;95981.84;;;12.19;63.88
69411;BME280;56604;48.652;9.194;2023-04-28T02:19:46;95980.78;;;12.20;63.99
69411;BME280;56604;48.652;9.194;2023-04-28T02:22:11;95970.25;;;12.20;64.36
69411;BME280;56604;48.652;9.194;2023-04-28T02:24:36;95968.16;;;12.22;64.00
69411;BME280;56604;48.652;9.194;2023-04-28T02:27:03;95973.91;;;12.24;63.45
69411;BME280;56604;48.652;9.194;2023-04-28T02:29:29;95978.16;;;12.25;64.17
69411;BME280;56604;48.652;9.194;2023-04-28T02:31:55;95979.72;;;12.21;64.11
69411;BME280;56604;48.652;9.194;2023-04-28T02:34:21;95983.16;;;12.21;64.47
69411;BME280;56604;48.652;9.194;2023-04-28T02:36:46;95980.25;;;12.23;63.83
69411;BME280;56604;48.652;9.194;2023-04-28T02:39:12;95976.06;;;12.27;64.01
69411;BME280;56604;48.652;9.194;2023-04-28T02:41:37;95974.44;;;12.26;64.10
69411;BME280;56604;48.652;9.194;2023-04-28T02:44:03;95974.97;;;12.23;64.31
69411;BME280;56604;48.652;9.194;2023-04-28T02:46:28;95966.03;;;12.19;64.49
69411;BME280;56604;48.652;9.194;2023-04-28T02:48:53;95968.41;;;12.20;63.87
69411;BME280;56604;48.652;9.194;2023-04-28T02:51:19;95975.22;;;12.26;64.40
69411;BME280;56604;48.652;9.194;2023-04-28T02:53:44;95965.47;;;12.32;63.67
69411;BME280;56604;48.652;9.194;2023-04-28T02:56:10;95964.69;;;12.26;63.89
69411;BME280;56604;48.652;9.194;2023-04-28T02:58:35;95971.81;;;12.26;63.88
69411;BME280;56604;48.652;9.194;2023-04-28T03:01:01;95964.44;;;12.23;63.66
69411;BME280;56604;48.652;9.194;2023-04-28T03:03:26;95963.91;;;12.26;63.75
69411;BME280;56604;48.652;9.194;2023-04-28T03:05:51;95965.75;;;12.25;63.59
69411;BME280;56604;48.652;9.194;2023-04-28T03:08:17;95974.97;;;12.23;64.07
69411;BME280;56604;48.652;9.194;2023-04-28T03:10:43;95970.25;;;12.30;64.44
69411;BME280;56604;48.652;9.194;2023-04-28T03:13:08;95970.78;;;12.27;63.99
69411;BME280;56604;48.652;9.194;2023-04-28T03:15:33;95967.88;;;12.28;64.17
69411;BME280;56604;48.652;9.194;2023-04-28T03:17:59;95973.94;;;12.19;64.47
69411;BME280;56604;48.652;9.194;2023-04-28T03:20:24;95969.19;;;12.26;64.46
69411;BME280;56604;48.652;9.194;2023-04-28T03:22:49;95962.34;;;12.14;65.20
69411;BME280;56604;48.652;9.194;2023-04-28T03:25:15;95962.88;;;12.17;66.75
69411;BME280;56604;48.652;9.194;2023-04-28T03:27:40;95958.66;;;12.05;68.52
69411;BME280;56604;48.652;9.194;2023-04-28T03:30:06;95953.94;;;12.07;68.84
69411;BME280;56604;48.652;9.194;2023-04-28T03:32:31;95958.13;;;12.03;69.77
69411;BME280;56604;48.652;9.194;2023-04-28T03:34:57;95952.34;;;12.01;70.10
69411;BME280;56604;48.652;9.194;2023-04-28T03:37:22;95947.09;;;11.96;69.63
69411;BME280;56604;48.652;9.194;2023-04-28T03:39:47;95947.09;;;11.91;69.55
69411;BME280;56604;48.652;9.194;2023-04-28T03:42:13;95951.00;;;11.83;70.16
69411;BME280;56604;48.652;9.194;2023-04-28T03:44:38;95951.28;;;11.82;69.53
69411;BME280;56604;48.652;9.194;2023-04-28T03:47:03;95952.34;;;11.86;69.77
69411;BME280;56604;48.652;9.194;2023-04-28T03:49:29;95952.31;;;11.81;69.08
69411;BME280;56604;48.652;9.194;2023-04-28T03:51:54;95940.78;;;11.87;68.77
69411;BME280;56604;48.652;9.194;2023-04-28T03:54:19;95939.44;;;11.95;67.67
69411;BME280;56604;48.652;9.194;2023-04-28T03:56:44;95941.53;;;11.98;67.78
69411;BME280;56604;48.652;9.194;2023-04-28T03:59:10;95944.44;;;12.01;68.23
69411;BME280;56604;48.652;9.194;2023-04-28T04:01:36;95941.28;;;12.04;67.65
69411;BME280;56604;48.652;9.194;2023-04-28T04:04:02;95940.22;;;12.00;68.08
69411;BME280;56604;48.652;9.194;2023-04-28T04:06:27;95938.13;;;11.97;68.16
69411;BME280;56604;48.652;9.194;2023-04-28T04:08:53;95943.91;;;12.09;67.93
69411;BME280;56604;48.652;9.194;2023-04-28T04:11:18;95938.63;;;12.09;67.37
69411;BME280;56604;48.652;9.194;2023-04-28T04:13:43;95940.47;;;12.04;68.25
69411;BME280;56604;48.652;9.194;2023-04-28T04:16:08;95933.63;;;12.13;68.02
69411;BME280;56604;48.652;9.194;2023-04-28T04:18:34;95933.63;;;12.13;68.44
69411;BME280;56604;48.652;9.194;2023-04-28T04:20:59;95929.94;;;12.09;68.48
69411;BME280;56604;48.652;9.194;2023-04-28T04:23:25;95931.50;;;12.15;68.55
69411;BME280;56604;48.652;9.194;2023-04-28T04:25:50;95927.84;;;12.06;69.26
69411;BME280;56604;48.652;9.194;2023-04-28T04:28:15;95928.63;;;12.11;69.97
69411;BME280;56604;48.652;9.194;2023-04-28T04:30:41;95928.09;;;12.14;69.59
69411;BME280;56604;48.652;9.194;2023-04-28T04:33:06;95922.72;;;12.55;71.24
69411;BME280;56604;48.652;9.194;2023-04-28T04:35:31;95917.00;;;12.33;70.92
69411;BME280;56604;48.652;9.194;2023-04-28T04:37:57;95918.06;;;12.27;72.07
69411;BME280;56604;48.652;9.194;2023-04-28T04:40:22;95925.19;;;12.21;73.70
69411;BME280;56604;48.652;9.194;2023-04-28T04:42:48;95918.63;;;12.03;74.78
69411;BME280;56604;48.652;9.194;2023-04-28T04:45:13;95917.56;;;12.04;75.32
69411;BME280;56604;48.652;9.194;2023-04-28T04:47:39;95932.31;;;11.95;76.27
69411;BME280;56604;48.652;9.194;2023-04-28T04:50:05;95933.88;;;12.06;76.67
69411;BME280;56604;48.652;9.194;2023-04-28T04:52:31;95934.97;;;11.90;78.12
69411;BME280;56604;48.652;9.194;2023-04-28T04:54:57;95933.09;;;11.80;79.30
69411;BME280;56604;48.652;9.194;2023-04-28T04:57:22;95933.63;;;11.77;79.31
69411;BME280;56604;48.652;9.194;2023-04-28T04:59:47;95925.47;;;11.79;80.17
69411;BME280;56604;48.652;9.194;2023-04-28T05:02:13;95928.09;;;11.74;81.21
69411;BME280;56604;48.652;9.194;2023-04-28T05:04:38;95922.56;;;11.75;80.46
69411;BME280;56604;48.652;9.194;2023-04-28T05:07:03;95925.19;;;11.65;82.02
69411;BME280;56604;48.652;9.194;2023-04-28T05:09:29;95922.03;;;11.68;82.63
69411;BME280;56604;48.652;9.194;2023-04-28T05:11:56;95914.94;;;11.53;83.64
69411;BME280;56604;48.652;9.194;2023-04-28T05:14:22;95919.66;;;11.46;84.93
69411;BME280;56604;48.652;9.194;2023-04-28T05:16:47;95919.41;;;11.53;85.46
69411;BME280;56604;48.652;9.194;2023-04-28T05:19:12;95923.59;;;11.48;86.08
69411;BME280;56604;48.652;9.194;2023-04-28T05:21:38;95924.66;;;11.58;87.03
69411;BME280;56604;48.652;9.194;2023-04-28T05:24:03;95921.22;;;11.37;88.34
69411;BME280;56604;48.652;9.194;2023-04-28T05:26:29;95924.38;;;11.44;88.43
69411;BME280;56604;48.652;9.194;2023-04-28T05:28:54;95932.00;;;11.40;88.88
69411;BME280;56604;48.652;9.194;2023-04-28T05:31:19;95925.44;;;11.48;88.92
69411;BME280;56604;48.652;9.194;2023-04-28T05:33:45;95929.38;;;11.35;89.70
69411;BME280;56604;48.652;9.194;2023-04-28T05:36:10;95922.81;;;11.33;90.82
69411;BME280;56604;48.652;9.194;2023-04-28T05:38:36;95926.50;;;11.37;90.43
69411;BME280;56604;48.652;9.194;2023-04-28T05:41:01;95927.53;;;11.41;90.44
69411;BME280;56604;48.652;9.194;2023-04-28T05:43:27;95929.38;;;11.30;90.63
69411;BME280;56604;48.652;9.194;2023-04-28T05:45:52;95931.22;;;11.35;90.68
69411;BME280;56604;48.652;9.194;2023-04-28T05:48:18;95924.09;;;11.35;91.33
69411;BME280;56604;48.652;9.194;2023-04-28T05:50:43;95929.38;;;11.35;91.26
69411;BME280;56604;48.652;9.194;2023-04-28T05:53:08;95924.41;;;11.39;90.83
69411;BME280;56604;48.652;9.194;2023-04-28T05:55:34;95925.44;;;11.43;90.94
69411;BME280;56604;48.652;9.194;2023-04-28T05:58:01;95915.94;;;11.26;91.65
69411;BME280;56604;48.652;9.194;2023-04-28T06:00:26;95924.91;;;11.36;92.02
69411;BME280;56604;48.652;9.194;2023-04-28T06:02:52;95922.28;;;11.51;91.92
69411;BME280;56604;48.652;9.194;2023-04-28T06:05:17;95925.97;;;11.40;91.91
69411;BME280;56604;48.652;9.194;2023-04-28T06:07:43;95925.44;;;11.28;93.14
69411;BME280;56604;48.652;9.194;2023-04-28T06:10:09;95922.28;;;11.31;93.43
69411;BME280;56604;48.652;9.194;2023-04-28T06:12:34;95927.50;;;11.15;93.88
69411;BME280;56604;48.652;9.194;2023-04-28T06:15:00;95911.75;;;11.31;94.36
69411;BME280;56604;48.652;9.194;2023-04-28T06:17:26;95913.06;;;11.38;93.44
69411;BME280;56604;48.652;9.194;2023-04-28T06:19:51;95907.28;;;11.31;93.78
69411;BME280;56604;48.652;9.194;2023-04-28T06:22:18;95914.38;;;11.46;93.18
69411;BME280;56604;48.652;9.194;2023-04-28T06:24:44;95914.91;;;11.43;92.54
69411;BME280;56604;48.652;9.194;2023-04-28T06:27:09;95913.59;;;11.40;93.33
69411;BME280;56604;48.652;9.194;2023-04-28T06:29:35;95915.44;;;11.40;93.15
69411;BME280;56604;48.652;9.194;2023-04-28T06:32:00;95906.78;;;11.44;93.17
69411;BME280;56604;48.652;9.194;2023-04-28T06:34:25;95908.06;;;11.57;93.51
69411;BME280;56604;48.652;9.194;2023-04-28T06:36:53;95907.00;;;11.38;93.32
69411;BME280;56604;48.652;9.194;2023-04-28T06:39:19;95905.16;;;11.38;93.56
69411;BME280;56604;48.652;9.194;2023-04-28T06:41:44;95904.66;;;11.46;93.76
69411;BME280;56604;48.652;9.194;2023-04-28T06:44:09;95901.75;;;11.48;93.58
69411;BME280;56604;48.652;9.194;2023-04-28T06:46:35;95906.25;;;11.63;93.60
69411;BME280;56604;48.652;9.194;2023-04-28T06:49:01;95908.63;;;11.59;93.42
69411;BME280;56604;48.652;9.194;2023-04-28T06:51:26;95906.78;;;11.65;93.45
69411;BME280;56604;48.652;9.194;2023-04-28T06:53:53;95910.97;;;11.71;92.81
69411;BME280;56604;48.652;9.194;2023-04-28T06:56:18;95898.06;;;11.80;92.90
69411;BME280;56604;48.652;9.194;2023-04-28T06:58:44;95899.13;;;11.79;93.10
69411;BME280;56604;48.652;9.194;2023-04-28T07:01:10;95895.97;;;11.82;93.17
69411;BME280;56604;48.652;9.194;2023-04-28T07:03:36;95890.44;;;11.99;92.97
69411;BME280;56604;48.652;9.194;2023-04-28T07:06:02;95885.94;;;12.09;92.07
69411;BME280;56604;48.652;9.194;2023-04-28T07:08:27;95891.19;;;12.20;91.70
69411;BME280;56604;48.652;9.194;2023-04-28T07:10:55;95888.28;;;12.21;90.79
69411;BME280;56604;48.652;9.194;2023-04-28T07:13:20;95889.56;;;12.39;90.62
69411;BME280;56604;48.652;9.194;2023-04-28T07:15:46;95876.84;;;12.51;89.92
69411;BME280;56604;48.652;9.194;2023-04-28T07:18:11;95884.19;;;12.65;88.68
69411;BME280;56604;48.652;9.194;2023-04-28T07:20:36;95878.38;;;12.68;88.57
69411;BME280;56604;48.652;9.194;2023-04-28T07:23:02;95879.97;;;12.64;88.91
69411;BME280;56604;48.652;9.194;2023-04-28T07:25:27;95879.97;;;12.64;89.91
69411;BME280;56604;48.652;9.194;2023-04-28T07:27:52;95878.44;;;12.52;89.34
69411;BME280;56604;48.652;9.194;2023-04-28T07:30:18;95878.38;;;12.63;89.32
69411;BME280;56604;48.652;9.194;2023-04-28T07:32:43;95873.56;;;12.80;88.66
69411;BME280;56604;48.652;9.194;2023-04-28T07:35:09;95869.28;;;12.89;87.56
69411;BME280;56604;48.652;9.194;2023-04-28T07:37:36;95877.28;;;12.74;88.16
69411;BME280;56604;48.652;9.194;2023-04-28T07:40:01;95879.38;;;12.77;88.83
69411;BME280;56604;48.652;9.194;2023-04-28T07:42:26;95874.06;;;12.82;88.95
69411;BME280;56604;48.652;9.194;2023-04-28T07:44:52;95871.97;;;12.79;89.34
69411;BME280;56604;48.652;9.194;2023-04-28T07:47:17;95868.63;;;12.63;89.67
69411;BME280;56604;48.652;9.194;2023-04-28T07:49:43;95868.34;;;12.70;90.84
69411;BME280;56604;48.652;9.194;2023-04-28T07:52:08;95874.94;;;12.72;90.46
69411;BME280;56604;48.652;9.194;2023-04-28T07:54:34;95873.66;;;12.59;91.43
69411;BME280;56604;48.652;9.194;2023-04-28T07:56:59;95878.63;;;12.66;91.40
69411;BME280;56604;48.652;9.194;2023-04-28T07:59:25;95881.22;;;12.81;91.23
69411;BME280;56604;48.652;9.194;2023-04-28T08:01:51;95875.09;;;12.86;91.23
69411;BME280;56604;48.652;9.194;2023-04-28T08:04:16;95876.81;;;12.62;91.92
69411;BME280;56604;48.652;9.194;2023-04-28T08:06:41;95886.75;;;12.80;92.30
69411;BME280;56604;48.652;9.194;2023-04-28T08:09:07;95887.56;;;12.75;92.63
69411;BME280;56604;48.652;9.194;2023-04-28T08:11:33;95887.38;;;12.62;93.55
69411;BME280;56604;48.652;9.194;2023-04-28T08:13:59;95889.94;;;12.77;93.54
69411;BME280;56604;48.652;9.194;2023-04-28T08:16:29;95895.22;;;12.72;93.52
69411;BME280;56604;48.652;9.194;2023-04-28T08:18:54;95895.25;;;12.67;93.51
69411;BME280;56604;48.652;9.194;2023-04-28T08:21:19;95905.81;;;12.67;94.13
69411;BME280;56604;48.652;9.194;2023-04-28T08:23:45;95905.75;;;12.77;93.91
69411;BME280;56604;48.652;9.194;2023-04-28T08:26:10;95910.00;;;12.78;93.76
69411;BME280;56604;48.652;9.194;2023-04-28T08:28:36;95913.69;;;12.72;94.01
69411;BME280;56604;48.652;9.194;2023-04-28T08:31:02;95912.63;;;12.78;94.26
69411;BME280;56604;48.652;9.194;2023-04-28T08:33:29;95915.53;;;12.76;94.57
69411;BME280;56604;48.652;9.194;2023-04-28T08:35:54;95914.50;;;12.72;94.79
69411;BME280;56604;48.652;9.194;2023-04-28T08:38:20;95913.88;;;12.91;93.74
69411;BME280;56604;48.652;9.194;2023-04-28T08:40:48;95917.28;;;12.91;94.28
69411;BME280;56604;48.652;9.194;2023-04-28T08:43:14;95917.69;;;13.14;93.68
69411;BME280;56604;48.652;9.194;2023-04-28T08:45:41;95911.91;;;13.12;94.18
69411;BME280;56604;48.652;9.194;2023-04-28T08:48:16;95923.47;;;13.21;93.84
69411;BME280;56604;48.652;9.194;2023-04-28T08:50:50;95922.66;;;13.20;93.31
69411;BME280;56604;48.652;9.194;2023-04-28T08:53:26;95916.25;;;13.42;93.85
69411;BME280;56604;48.652;9.194;2023-04-28T08:55:56;95924.91;;;13.47;92.93
69411;BME280;56604;48.652;9.194;2023-04-28T08:58:23;95920.66;;;13.52;93.33
69411;BME280;56604;48.652;9.194;2023-04-28T09:00:50;95924.69;;;13.78;92.45
69411;BME280;56604;48.652;9.194;2023-04-28T09:03:16;95930.44;;;13.85;91.50
69411;BME280;56604;48.652;9.194;2023-04-28T09:05:42;95921.47;;;13.86;92.04
69411;BME280;56604;48.652;9.194;2023-04-28T09:08:07;95930.41;;;14.20;90.94
69411;BME280;56604;48.652;9.194;2023-04-28T09:10:33;95936.47;;;14.20;91.11
69411;BME280;56604;48.652;9.194;2023-04-28T09:12:58;95926.00;;;14.10;90.94
69411;BME280;56604;48.652;9.194;2023-04-28T09:15:28;95936.66;;;14.00;91.31
69411;BME280;56604;48.652;9.194;2023-04-28T09:17:54;95942.66;;;14.10;90.40
69411;BME280;56604;48.652;9.194;2023-04-28T09:20:24;95942.19;;;14.03;91.22
69411;BME280;56604;48.652;9.194;2023-04-28T09:22:51;95946.97;;;14.01;91.55
69411;BME280;56604;48.652;9.194;2023-04-28T09:25:17;95949.88;;;14.00;91.92
69411;BME280;56604;48.652;9.194;2023-04-28T09:27:43;95943.84;;;13.94;92.74
69411;BME280;56604;48.652;9.194;2023-04-28T09:30:09;95943.25;;;14.31;92.01
69411;BME280;56604;48.652;9.194;2023-04-28T09:32:35;95946.97;;;14.30;90.71
69411;BME280;56604;48.652;9.194;2023-04-28T09:35:00;95950.53;;;14.45;90.34
69411;BME280;56604;48.652;9.194;2023-04-28T09:37:27;95960.00;;;14.46;91.04
69411;BME280;56604;48.652;9.194;2023-04-28T09:39:55;95955.75;;;14.55;90.38
69411;BME280;56604;48.652;9.194;2023-04-28T09:42:38;95955.91;;;14.64;90.45
69411;BME280;56604;48.652;9.194;2023-04-28T09:47:31;95959.66;;;15.24;88.61
69411;BME280;56604;48.652;9.194;2023-04-28T09:50:02;95949.81;;;15.49;88.28
69411;BME280;56604;48.652;9.194;2023-04-28T09:52:27;95947.84;;;15.92;86.50
69411;BME280;56604;48.652;9.194;2023-04-28T09:54:54;95944.78;;;15.85;86.43
69411;BME280;56604;48.652;9.194;2023-04-28T09:57:21;95953.19;;;16.06;85.83
69411;BME280;56604;48.652;9.194;2023-04-28T09:59:49;95944.22;;;16.35;84.78
69411;BME280;56604;48.652;9.194;2023-04-28T10:02:16;95956.38;;;16.36;83.71
69411;BME280;56604;48.652;9.194;2023-04-28T10:04:48;95949.94;;;16.70;83.98
69411;BME280;56604;48.652;9.194;2023-04-28T10:07:16;95955.78;;;17.36;82.70
69411;BME280;56604;48.652;9.194;2023-04-28T10:09:49;95957.63;;;17.85;80.30
69411;BME280;56604;48.652;9.194;2023-04-28T10:12:19;95950.63;;;18.43;78.46
69411;BME280;56604;48.652;9.194;2023-04-28T10:14:45;95947.31;;;18.37;77.17
69411;BME280;56604;48.652;9.194;2023-04-28T10:17:12;95949.34;;;18.09;77.35
69411;BME280;56604;48.652;9.194;2023-04-28T10:19:39;95946.84;;;18.13;77.32
69411;BME280;56604;48.652;9.194;2023-04-28T10:24:31;95957.84;;;17.75;78.82
69411;BME280;56604;48.652;9.194;2023-04-28T10:27:07;95957.63;;;17.49;78.75
69411;BME280;56604;48.652;9.194;2023-04-28T10:29:33;95958.59;;;17.30;79.47
69411;BME280;56604;48.652;9.194;2023-04-28T10:34:40;95949.38;;;17.00;80.55
69411;BME280;56604;48.652;9.194;2023-04-28T10:37:05;95951.09;;;17.19;79.35
69411;BME280;56604;48.652;9.194;2023-04-28T10:39:30;95949.88;;;17.39;79.42
69411;BME280;56604;48.652;9.194;2023-04-28T10:41:56;95954.19;;;17.48;79.17
69411;BME280;56604;48.652;9.194;2023-04-28T10:47:13;95953.41;;;17.48;81.36
69411;BME280;56604;48.652;9.194;2023-04-28T10:55:34;95953.28;;;17.89;79.06
69411;BME280;56604;48.652;9.194;2023-04-28T11:00:47;95955.22;;;17.97;78.14
69411;BME280;56604;48.652;9.194;2023-04-28T11:06:22;95951.34;;;17.81;78.73
69411;BME280;56604;48.652;9.194;2023-04-28T11:08:51;95955.06;;;18.25;77.79
69411;BME280;56604;48.652;9.194;2023-04-28T11:11:19;95957.75;;;18.56;75.34
69411;BME280;56604;48.652;9.194;2023-04-28T11:13:46;95948.34;;;17.96;77.82
69411;BME280;56604;48.652;9.194;2023-04-28T11:16:14;95947.97;;;17.89;77.02
69411;BME280;56604;48.652;9.194;2023-04-28T11:18:48;95946.56;;;17.56;77.48
69411;BME280;56604;48.652;9.194;2023-04-28T11:21:14;95949.44;;;17.23;80.00
69411;BME280;56604;48.652;9.194;2023-04-28T11:23:41;95952.38;;;17.58;79.35
69411;BME280;56604;48.652;9.194;2023-04-28T11:26:07;95948.63;;;17.59;79.33
69411;BME280;56604;48.652;9.194;2023-04-28T11:28:32;95956.06;;;17.84;77.85
69411;BME280;56604;48.652;9.194;2023-04-28T11:33:37;95950.22;;;17.60;78.64
69411;BME280;56604;48.652;9.194;2023-04-28T11:36:04;95961.63;;;17.96;77.66
69411;BME280;56604;48.652;9.194;2023-04-28T11:38:29;95956.75;;;18.21;77.04
69411;BME280;56604;48.652;9.194;2023-04-28T11:40:56;95954.41;;;18.51;75.50
69411;BME280;56604;48.652;9.194;2023-04-28T11:43:29;95953.03;;;18.84;75.04
69411;BME280;56604;48.652;9.194;2023-04-28T11:45:55;95957.66;;;19.27;73.93
69411;BME280;56604;48.652;9.194;2023-04-28T11:48:21;95951.09;;;19.33;72.00
69411;BME280;56604;48.652;9.194;2023-04-28T11:50:46;95947.00;;;19.27;71.74
69411;BME280;56604;48.652;9.194;2023-04-28T11:53:11;95943.88;;;19.60;70.75
69411;BME280;56604;48.652;9.194;2023-04-28T11:55:37;95936.03;;;19.55;70.90
69411;BME280;56604;48.652;9.194;2023-04-28T11:58:21;95946.31;;;18.96;72.00
69411;BME280;56604;48.652;9.194;2023-04-28T12:01:08;95946.28;;;18.47;72.97
69411;BME280;56604;48.652;9.194;2023-04-28T12:03:44;95940.63;;;18.17;72.88
69411;BME280;56604;48.652;9.194;2023-04-28T12:06:11;95939.34;;;18.15;73.59
69411;BME280;56604;48.652;9.194;2023-04-28T12:11:08;95945.28;;;18.12;73.17
69411;BME280;56604;48.652;9.194;2023-04-28T12:13:36;95950.44;;;18.08;73.87
69411;BME280;56604;48.652;9.194;2023-04-28T12:16:05;95950.13;;;17.65;75.05
69411;BME280;56604;48.652;9.194;2023-04-28T12:18:32;95949.03;;;17.66;76.47
69411;BME280;56604;48.652;9.194;2023-04-28T12:20:58;95957.13;;;17.11;78.19
69411;BME280;56604;48.652;9.194;2023-04-28T12:23:31;95959.03;;;16.96;78.34
69411;BME280;56604;48.652;9.194;2023-04-28T12:25:57;95959.97;;;16.73;79.46
69411;BME280;56604;48.652;9.194;2023-04-28T12:28:23;95953.31;;;16.89;79.85
69411;BME280;56604;48.652;9.194;2023-04-28T12:31:03;95961.00;;;16.77;80.66
69411;BME280;56604;48.652;9.194;2023-04-28T12:33:29;95957.91;;;17.25;80.15
69411;BME280;56604;48.652;9.194;2023-04-28T12:35:55;95957.16;;;17.33;79.29
69411;BME280;56604;48.652;9.194;2023-04-28T12:38:21;95954.22;;;17.71;77.74
69411;BME280;56604;48.652;9.194;2023-04-28T12:40:47;95957.88;;;17.97;77.13
69411;BME280;56604;48.652;9.194;2023-04-28T12:43:12;95951.16;;;18.54;74.24
69411;BME280;56604;48.652;9.194;2023-04-28T12:45:37;95943.03;;;18.99;72.28
69411;BME280;56604;48.652;9.194;2023-04-28T12:48:03;95944.00;;;19.29;69.59
69411;BME280;56604;48.652;9.194;2023-04-28T12:50:28;95939.19;;;19.83;67.95
69411;BME280;56604;48.652;9.194;2023-04-28T12:52:57;95935.41;;;19.49;66.19
69411;BME280;56604;48.652;9.194;2023-04-28T12:55:22;95933.03;;;19.30;65.67
69411;BME280;56604;48.652;9.194;2023-04-28T12:57:48;95940.91;;;18.78;67.70
69411;BME280;56604;48.652;9.194;2023-04-28T13:00:13;95935.59;;;18.78;67.83
69411;BME280;56604;48.652;9.194;2023-04-28T13:02:40;95936.00;;;19.20;66.78
69411;BME280;56604;48.652;9.194;2023-04-28T13:05:06;95932.91;;;19.36;68.81
69411;BME280;56604;48.652;9.194;2023-04-28T13:07:32;95931.34;;;19.87;67.58
69411;BME280;56604;48.652;9.194;2023-04-28T13:09:58;95927.88;;;19.60;68.31
69411;BME280;56604;48.652;9.194;2023-04-28T13:12:23;95922.72;;;19.90;69.02
69411;BME280;56604;48.652;9.194;2023-04-28T13:14:49;95926.63;;;19.66;68.09
69411;BME280;56604;48.652;9.194;2023-04-28T13:17:14;95929.16;;;19.71;68.45
69411;BME280;56604;48.652;9.194;2023-04-28T13:19:40;95925.22;;;19.69;67.01
69411;BME280;56604;48.652;9.194;2023-04-28T13:22:05;95920.59;;;20.21;66.22